Search for airport 
image banner adimage banner ad
image banner ad

SVNP - Capitania De Puertos

Located in Maracaibo, Venezuela

ICAO - SVNP, IATA -

Data provided by Airmate  

General information

Coordinates: N10°38'8" W71°34'1"
Elevation is 328 feet MSL.
 
Rated:
View ratings: [VIEW]


View others Airports in Portuguesa

Operational data

Open for public use
Current time UTC:
Current local time:
Weather at : SVMC - Maracaibo / La Chinita Intl ( 20 km )
METAR: SVMC 091902Z AUTO 05004KT NCD 35/21 Q1010
TAF: TAF SVMC 091600Z 0912/1012 05005KT 9999 SCT016 BKN030 TX35/0919Z TN24/0909Z BECMG 0912/0916 09005KT 9999 SCT016 BKN100
View NOTAMs / SUP AIP / TFR affecting this airport [VIEW]
Communications frequencies: [VIEW]

Runways:

Airport contact information

Address: Maracaibo Venezuela

Satellite view of SVNP